createdAt,value
2023-02-28T00:01:47.075Z,102973.13
2023-02-28T00:04:16.200Z,102968.81
2023-02-28T00:06:45.304Z,102978.53
2023-02-28T00:09:15.753Z,102983.84
2023-02-28T00:11:44.896Z,102977.06
2023-02-28T00:14:14.047Z,102980.66
2023-02-28T00:16:43.286Z,102975.69
2023-02-28T00:19:14.307Z,102979.19
2023-02-28T00:21:43.925Z,102978.47
2023-02-28T00:24:13.077Z,102978.53
2023-02-28T00:26:43.517Z,102976.88
2023-02-28T00:29:12.746Z,102977.03
2023-02-28T00:31:41.789Z,102982.28
2023-02-28T00:34:10.893Z,102981.56
2023-02-28T00:36:40.037Z,102985.09
2023-02-28T00:39:09.186Z,102985.78
2023-02-28T00:41:38.302Z,102972.69
2023-02-28T00:44:08.865Z,102976.00
2023-02-28T00:46:38.001Z,102983.72
2023-02-28T00:49:07.217Z,102989.94
2023-02-28T00:51:38.402Z,102983.03
2023-02-28T00:54:07.547Z,102983.84
2023-02-28T00:56:36.623Z,102980.44
2023-02-28T00:59:08.373Z,102987.25
2023-02-28T01:01:37.713Z,102983.88
2023-02-28T01:04:06.883Z,102990.00
2023-02-28T01:06:36.811Z,102998.50
2023-02-28T01:09:07.327Z,102989.00
2023-02-28T01:11:37.225Z,102988.09
2023-02-28T01:14:07.720Z,102994.13
2023-02-28T01:16:36.828Z,102988.31
2023-02-28T01:19:05.933Z,102991.03
2023-02-28T01:21:35.795Z,102989.31
2023-02-28T01:24:06.028Z,102986.72
2023-02-28T01:26:35.412Z,102985.03
2023-02-28T01:29:04.723Z,102987.75
2023-02-28T01:31:35.539Z,102992.16
2023-02-28T01:34:05.365Z,102999.06
2023-02-28T01:36:34.614Z,102994.41
2023-02-28T01:39:03.938Z,102994.50
2023-02-28T01:41:35.540Z,102997.03
2023-02-28T01:44:08.654Z,102990.97
2023-02-28T01:46:39.217Z,102984.81
2023-02-28T01:49:11.164Z,102982.09
2023-02-28T01:51:47.216Z,102982.94
2023-02-28T01:54:20.545Z,102986.31
2023-02-28T01:56:55.537Z,102984.56
2023-02-28T01:59:28.867Z,102980.22
2023-02-28T02:01:59.580Z,102981.97
2023-02-28T02:04:34.417Z,102980.31
2023-02-28T02:07:03.591Z,102986.34
2023-02-28T02:09:32.783Z,102986.50
2023-02-28T02:12:08.472Z,102974.31
2023-02-28T02:15:02.016Z,102980.25
2023-02-28T02:17:38.798Z,102983.09
2023-02-28T02:20:53.164Z,102976.25
2023-02-28T02:23:55.724Z,102977.13
2023-02-28T02:26:54.208Z,102975.44
2023-02-28T02:30:03.321Z,102974.63
2023-02-28T02:33:04.496Z,102973.72
2023-02-28T02:35:42.240Z,102968.66
2023-02-28T02:38:16.958Z,102970.34
2023-02-28T02:40:54.187Z,102965.19
2023-02-28T02:43:31.109Z,102959.91
2023-02-28T02:46:06.404Z,102959.81
2023-02-28T02:48:38.421Z,102962.28
2023-02-28T02:51:13.544Z,102957.94
2023-02-28T02:53:51.235Z,102963.94
2023-02-28T02:56:25.690Z,102961.34
2023-02-28T02:59:01.911Z,102964.78
2023-02-28T03:01:33.402Z,102965.75
2023-02-28T03:04:06.360Z,102961.31
2023-02-28T03:06:37.111Z,102964.69
2023-02-28T03:09:06.451Z,102973.34
2023-02-28T03:11:37.148Z,102967.44
2023-02-28T03:14:30.877Z,102970.09
2023-02-28T03:17:16.492Z,102968.59
2023-02-28T03:19:56.663Z,102964.47
2023-02-28T03:22:45.564Z,102974.25
2023-02-28T03:25:22.761Z,102979.34
2023-02-28T03:28:01.900Z,102975.78
2023-02-28T03:30:40.340Z,102977.53
2023-02-28T03:33:13.963Z,102968.97
2023-02-28T03:35:47.405Z,102980.25
2023-02-28T03:38:22.757Z,102983.66
2023-02-28T03:40:57.360Z,102981.00
2023-02-28T03:43:32.504Z,102991.31
2023-02-28T03:46:05.030Z,102981.81
2023-02-28T03:48:41.331Z,102982.75
2023-02-28T03:51:13.443Z,102978.56
2023-02-28T03:53:48.202Z,102985.53
2023-02-28T03:56:20.593Z,102977.94
2023-02-28T03:58:55.965Z,102982.41
2023-02-28T04:01:30.838Z,102981.66
2023-02-28T04:04:00.525Z,102985.13
2023-02-28T04:06:32.506Z,102984.31
2023-02-28T04:09:03.822Z,102989.50
2023-02-28T04:11:36.802Z,102984.47
2023-02-28T04:14:06.861Z,102993.09
2023-02-28T04:16:37.815Z,102987.06
2023-02-28T04:19:08.428Z,102993.94
2023-02-28T04:21:39.871Z,102992.19
2023-02-28T04:24:15.131Z,102987.94
2023-02-28T04:26:45.736Z,102990.59
2023-02-28T04:29:16.625Z,102986.31
2023-02-28T04:31:45.831Z,102995.00
2023-02-28T04:34:15.293Z,102999.34
2023-02-28T04:36:44.401Z,102994.25
2023-02-28T04:39:14.970Z,102992.53
2023-02-28T04:41:44.069Z,102999.41
2023-02-28T04:44:13.415Z,102997.72
2023-02-28T04:46:42.543Z,103000.34
2023-02-28T04:49:12.678Z,102996.06
2023-02-28T04:51:42.221Z,102996.06
2023-02-28T04:54:11.429Z,102999.44
2023-02-28T04:56:41.853Z,102994.22
2023-02-28T04:59:10.913Z,102989.91
2023-02-28T05:01:39.981Z,103000.25
2023-02-28T05:04:09.011Z,102995.97
2023-02-28T05:06:38.119Z,102998.56
2023-02-28T05:09:07.141Z,102997.69
2023-02-28T05:11:38.199Z,103002.00
2023-02-28T05:14:13.343Z,103000.34
2023-02-28T05:16:42.543Z,102996.91
2023-02-28T05:19:11.655Z,102986.50
2023-02-28T05:21:42.276Z,102997.66
2023-02-28T05:24:13.534Z,103001.97
2023-02-28T05:26:44.320Z,103001.19
2023-02-28T05:29:14.839Z,103005.53
2023-02-28T05:31:44.672Z,103010.69
2023-02-28T05:34:16.675Z,103007.28
2023-02-28T05:36:45.857Z,103013.25
2023-02-28T05:39:14.935Z,103016.72
2023-02-28T05:41:44.373Z,103021.03
2023-02-28T05:44:14.810Z,103011.56
2023-02-28T05:46:44.015Z,103019.31
2023-02-28T05:49:13.221Z,103010.72
2023-02-28T05:51:42.311Z,103019.31
2023-02-28T05:54:13.800Z,103016.75
2023-02-28T05:56:45.091Z,103023.59
2023-02-28T05:59:15.787Z,103023.56
2023-02-28T06:01:49.128Z,103033.03
2023-02-28T06:04:31.166Z,103018.44
2023-02-28T06:07:01.180Z,103024.41
2023-02-28T06:09:30.614Z,103022.72
2023-02-28T06:12:00.934Z,103024.38
2023-02-28T06:14:32.125Z,103022.69
2023-02-28T06:17:01.995Z,103026.13
2023-02-28T06:19:32.551Z,103022.69
2023-02-28T06:22:01.610Z,103027.84
2023-02-28T06:24:31.329Z,103031.28
2023-02-28T06:27:05.759Z,103032.13
2023-02-28T06:29:37.270Z,103030.41
2023-02-28T06:32:06.380Z,103033.81
2023-02-28T06:34:35.749Z,103031.22
2023-02-28T06:37:04.974Z,103042.41
2023-02-28T06:39:34.101Z,103039.81
2023-02-28T06:42:03.185Z,103042.41
2023-02-28T06:44:36.195Z,103045.88
2023-02-28T06:47:07.840Z,103044.13
2023-02-28T06:49:38.071Z,103042.41
2023-02-28T06:52:07.138Z,103048.28
2023-02-28T06:54:36.207Z,103055.91
2023-02-28T06:57:05.703Z,103039.56
2023-02-28T06:59:36.059Z,103048.22
2023-02-28T07:02:07.743Z,103042.25
2023-02-28T07:04:37.069Z,103046.53
2023-02-28T07:07:06.167Z,103042.19
2023-02-28T07:09:35.566Z,103045.50
2023-02-28T07:12:04.974Z,103054.75
2023-02-28T07:14:34.066Z,103046.03
2023-02-28T07:17:03.179Z,103057.81
2023-02-28T07:19:33.585Z,103055.16
2023-02-28T07:22:03.843Z,103050.44
2023-02-28T07:24:33.212Z,103061.16
2023-02-28T07:27:02.504Z,103055.75
2023-02-28T07:29:31.688Z,103055.56
2023-02-28T07:32:00.799Z,103061.59
2023-02-28T07:34:30.038Z,103053.44
2023-02-28T07:37:00.846Z,103053.25
2023-02-28T07:39:29.894Z,103047.06
2023-02-28T07:42:00.573Z,103059.75
2023-02-28T07:44:29.753Z,103059.81
2023-02-28T07:46:58.854Z,103060.88
2023-02-28T07:49:28.000Z,103071.91
2023-02-28T07:51:57.005Z,103063.06
2023-02-28T07:54:27.496Z,103059.84
2023-02-28T07:56:56.582Z,103070.94
2023-02-28T07:59:26.156Z,103075.91
2023-02-28T08:01:55.216Z,103075.81
2023-02-28T08:04:24.292Z,103064.94
2023-02-28T08:06:54.015Z,103072.53
2023-02-28T08:09:23.107Z,103078.81
2023-02-28T08:11:53.538Z,103066.38
2023-02-28T08:14:22.666Z,103065.34
2023-02-28T08:16:51.724Z,103065.22
2023-02-28T08:19:20.805Z,103072.97
2023-02-28T08:21:49.923Z,103072.53
2023-02-28T08:24:18.997Z,103072.94
2023-02-28T08:26:48.103Z,103070.53
2023-02-28T08:29:18.556Z,103069.75
2023-02-28T08:31:47.743Z,103069.75
2023-02-28T08:34:18.186Z,103071.19
2023-02-28T08:36:47.600Z,103070.25
2023-02-28T08:39:16.653Z,103076.28
2023-02-28T08:41:47.959Z,103074.56
2023-02-28T08:44:19.851Z,103076.53
2023-02-28T08:46:48.943Z,103074.44
2023-02-28T08:49:18.056Z,103077.09
2023-02-28T08:51:47.147Z,103083.66
2023-02-28T08:54:20.240Z,103080.28
2023-02-28T08:56:49.546Z,103078.69
2023-02-28T08:59:20.356Z,103083.56
2023-02-28T09:01:49.541Z,103073.88
2023-02-28T09:04:20.379Z,103079.50
2023-02-28T09:06:50.572Z,103089.19
2023-02-28T09:09:19.653Z,103079.28
2023-02-28T09:11:48.725Z,103088.28
2023-02-28T09:14:19.373Z,103091.34
2023-02-28T09:16:48.541Z,103084.13
2023-02-28T09:19:17.723Z,103086.34
2023-02-28T09:21:46.835Z,103086.81
2023-02-28T09:24:16.177Z,103085.56
2023-02-28T09:26:56.478Z,103082.03
2023-02-28T09:29:35.412Z,103088.50
2023-02-28T09:32:06.643Z,103087.63
2023-02-28T09:34:37.889Z,103093.50
2023-02-28T09:37:07.174Z,103094.56
2023-02-28T09:39:36.351Z,103088.09
2023-02-28T09:42:07.661Z,103087.13
2023-02-28T09:44:41.269Z,103089.44
2023-02-28T09:47:18.097Z,103092.50
2023-02-28T09:49:49.990Z,103090.47
2023-02-28T09:52:23.449Z,103098.16
2023-02-28T09:54:52.558Z,103091.19
2023-02-28T09:57:31.565Z,103093.25
2023-02-28T10:00:11.301Z,103098.13
2023-02-28T10:03:00.824Z,103088.88
2023-02-28T10:05:33.369Z,103100.19
2023-02-28T10:08:13.569Z,103092.44
2023-02-28T10:10:44.806Z,103090.50
2023-02-28T10:13:24.148Z,103082.75
2023-02-28T10:16:00.673Z,103091.91
2023-02-28T10:18:40.397Z,103090.34
2023-02-28T10:21:21.920Z,103093.84
2023-02-28T10:23:51.638Z,103085.53
2023-02-28T10:26:21.224Z,103087.63
2023-02-28T10:28:50.341Z,103092.09
2023-02-28T10:31:22.329Z,103100.03
2023-02-28T10:33:52.749Z,103086.81
2023-02-28T10:36:23.357Z,103080.16
2023-02-28T10:38:52.630Z,103093.16
2023-02-28T10:41:32.844Z,103082.78
2023-02-28T10:44:21.528Z,103087.88
2023-02-28T10:46:52.770Z,103090.31
2023-02-28T10:49:24.878Z,103086.75
2023-02-28T10:51:57.788Z,103090.97
2023-02-28T10:54:31.710Z,103092.66
2023-02-28T10:57:18.663Z,103091.22
2023-02-28T10:59:52.157Z,103092.09
2023-02-28T11:02:35.600Z,103096.63
2023-02-28T11:05:25.199Z,103093.91
2023-02-28T11:07:55.921Z,103083.09
2023-02-28T11:10:29.002Z,103085.47
2023-02-28T11:13:01.188Z,103090.88
2023-02-28T11:15:33.359Z,103086.66
2023-02-28T11:18:19.165Z,103078.41
2023-02-28T11:20:52.658Z,103086.47
2023-02-28T11:23:26.292Z,103082.88
2023-02-28T11:25:58.571Z,103082.44
2023-02-28T11:28:32.055Z,103075.34
2023-02-28T11:31:20.412Z,103078.22
2023-02-28T11:33:52.378Z,103073.06
2023-02-28T11:36:25.983Z,103070.72
2023-02-28T11:38:57.349Z,103061.66
2023-02-28T11:41:43.754Z,103062.91
2023-02-28T11:44:26.800Z,103066.00
2023-02-28T11:46:59.884Z,103062.91
2023-02-28T11:49:36.935Z,103057.97
2023-02-28T11:52:16.197Z,103049.13
2023-02-28T11:55:04.673Z,103054.31
2023-02-28T11:57:42.777Z,103049.25
2023-02-28T12:00:28.918Z,103040.78
2023-02-28T12:03:09.518Z,103043.84
2023-02-28T12:05:46.943Z,103035.16
2023-02-28T12:08:35.590Z,103043.28
2023-02-28T12:11:14.257Z,103037.41
2023-02-28T12:13:52.430Z,103026.78
2023-02-28T12:16:46.967Z,103030.53
2023-02-28T12:19:23.055Z,103027.50
2023-02-28T12:22:24.170Z,103012.44
2023-02-28T12:25:12.567Z,103016.41
2023-02-28T12:27:45.029Z,103012.16
2023-02-28T12:30:21.912Z,103006.59
2023-02-28T12:32:56.612Z,103004.13
2023-02-28T12:35:32.112Z,103004.09
2023-02-28T12:38:11.620Z,102997.66
2023-02-28T12:40:49.688Z,102991.97
2023-02-28T12:43:21.525Z,102981.66
2023-02-28T12:45:56.328Z,102972.97
2023-02-28T12:48:33.738Z,102986.56
2023-02-28T12:51:04.097Z,102971.31
2023-02-28T12:53:47.126Z,102969.75
2023-02-28T12:56:23.661Z,102971.94
2023-02-28T12:58:58.151Z,102964.97
2023-02-28T13:01:48.776Z,102962.38
2023-02-28T13:04:47.495Z,102972.00
2023-02-28T13:07:47.487Z,102965.59
2023-02-28T13:10:19.704Z,102958.13
2023-02-28T13:12:53.985Z,102950.44
2023-02-28T13:15:26.572Z,102950.00
2023-02-28T13:17:57.811Z,102947.94
2023-02-28T13:20:31.242Z,102944.28
2023-02-28T13:23:02.170Z,102943.78
2023-02-28T13:25:55.748Z,102935.88
2023-02-28T13:29:07.573Z,102940.84
2023-02-28T13:32:10.065Z,102936.66
2023-02-28T13:34:40.736Z,102938.13
2023-02-28T13:37:39.233Z,102937.22
2023-02-28T13:40:37.725Z,102930.63
2023-02-28T13:43:11.511Z,102930.56
2023-02-28T13:45:40.882Z,102933.88
2023-02-28T13:48:21.448Z,102934.81
2023-02-28T13:50:50.723Z,102927.69
2023-02-28T13:53:49.144Z,102929.25
2023-02-28T13:56:35.278Z,102926.06
2023-02-28T13:59:18.450Z,102936.75
2023-02-28T14:02:08.770Z,102934.34
2023-02-28T14:05:02.907Z,102945.38
2023-02-28T14:07:36.636Z,102938.16
2023-02-28T14:10:09.517Z,102945.38
2023-02-28T14:12:59.009Z,102944.53
2023-02-28T14:15:46.957Z,102942.41
2023-02-28T14:18:29.433Z,102947.22
2023-02-28T14:21:12.033Z,102949.03
2023-02-28T14:24:18.842Z,102946.63
2023-02-28T14:27:18.266Z,102944.03
2023-02-28T14:30:28.828Z,102950.63
2023-02-28T14:33:14.436Z,102947.63
2023-02-28T14:35:58.403Z,102942.75
2023-02-28T14:38:30.569Z,102941.13
2023-02-28T14:41:02.467Z,102942.78
2023-02-28T14:43:31.728Z,102950.25
2023-02-28T14:46:03.218Z,102940.22
2023-02-28T14:48:34.796Z,102947.31
2023-02-28T14:51:04.029Z,102950.78
2023-02-28T14:53:39.244Z,102947.78
2023-02-28T14:56:21.305Z,102946.75
2023-02-28T14:58:54.393Z,102940.03
2023-02-28T15:01:25.942Z,102928.63
2023-02-28T15:04:06.104Z,102939.53
2023-02-28T15:06:35.832Z,102932.97
2023-02-28T15:09:18.601Z,102934.25
2023-02-28T15:11:50.662Z,102922.22
2023-02-28T15:14:22.942Z,102925.47
2023-02-28T15:16:58.247Z,102929.66
2023-02-28T15:19:32.534Z,102923.44
2023-02-28T15:22:05.531Z,102915.16
2023-02-28T15:24:40.271Z,102921.03
2023-02-28T15:27:14.363Z,102917.09
2023-02-28T15:29:48.506Z,102918.81
2023-02-28T15:32:32.921Z,102921.84
2023-02-28T15:35:20.895Z,102910.16
2023-02-28T15:37:55.094Z,102917.81
2023-02-28T15:40:29.103Z,102911.53
2023-02-28T15:43:06.151Z,102908.06
2023-02-28T15:45:41.999Z,102901.63
2023-02-28T15:48:31.114Z,102902.03
2023-02-28T15:51:09.849Z,102899.75
2023-02-28T15:53:42.992Z,102897.78
2023-02-28T15:56:22.858Z,102898.44
2023-02-28T15:58:55.133Z,102895.44
2023-02-28T16:01:29.261Z,102898.06
2023-02-28T16:04:02.276Z,102892.84
2023-02-28T16:06:43.998Z,102895.88
2023-02-28T16:09:15.912Z,102899.50
2023-02-28T16:11:47.703Z,102900.25
2023-02-28T16:14:20.397Z,102900.38
2023-02-28T16:16:52.664Z,102899.47
2023-02-28T16:19:22.585Z,102902.47
2023-02-28T16:21:53.176Z,102899.50
2023-02-28T16:24:22.334Z,102901.19
2023-02-28T16:26:55.601Z,102907.13
2023-02-28T16:29:29.357Z,102907.16
2023-02-28T16:31:59.115Z,102908.16
2023-02-28T16:34:28.475Z,102913.47
2023-02-28T16:36:59.426Z,102909.69
2023-02-28T16:39:28.663Z,102921.50
2023-02-28T16:41:57.720Z,102915.84
2023-02-28T16:44:30.984Z,102911.50
2023-02-28T16:47:01.394Z,102913.59
2023-02-28T16:49:30.687Z,102916.63
2023-02-28T16:52:01.133Z,102914.50
2023-02-28T16:54:30.219Z,102918.09
2023-02-28T16:56:59.444Z,102919.25
2023-02-28T16:59:29.808Z,102919.47
2023-02-28T17:01:59.906Z,102923.97
2023-02-28T17:04:29.616Z,102926.91
2023-02-28T17:07:00.019Z,102928.81
2023-02-28T17:09:41.379Z,102930.66
2023-02-28T17:12:11.992Z,102937.56
2023-02-28T17:14:41.361Z,102937.09
2023-02-28T17:17:18.242Z,102942.75
2023-02-28T17:19:47.581Z,102939.72
2023-02-28T17:22:18.025Z,102945.38
2023-02-28T17:24:47.313Z,102945.50
2023-02-28T17:27:16.606Z,102944.31
2023-02-28T17:29:45.759Z,102944.69
2023-02-28T17:32:18.757Z,102949.81
2023-02-28T17:34:48.052Z,102950.06
2023-02-28T17:37:18.526Z,102941.66
2023-02-28T17:39:47.665Z,102952.03
2023-02-28T17:42:16.809Z,102947.03
2023-02-28T17:44:45.861Z,102957.31
2023-02-28T17:47:15.424Z,102949.44
2023-02-28T17:49:44.926Z,102953.00
2023-02-28T17:52:14.459Z,102947.63
2023-02-28T17:54:45.195Z,102949.94
2023-02-28T17:57:16.463Z,102956.44
2023-02-28T17:59:45.639Z,102959.25
2023-02-28T18:02:16.218Z,102959.75
2023-02-28T18:04:45.296Z,102954.63
2023-02-28T18:07:15.027Z,102954.56
2023-02-28T18:09:45.439Z,102949.88
2023-02-28T18:12:14.627Z,102956.56
2023-02-28T18:14:46.154Z,102964.25
2023-02-28T18:17:15.868Z,102960.34
2023-02-28T18:19:45.324Z,102962.25
2023-02-28T18:22:14.499Z,102970.06
2023-02-28T18:24:45.196Z,102963.19
2023-02-28T18:27:14.309Z,102968.72
2023-02-28T18:29:43.377Z,102972.19
2023-02-28T18:32:12.752Z,102970.84
2023-02-28T18:34:41.889Z,102973.34
2023-02-28T18:37:11.989Z,102969.16
2023-02-28T18:39:42.078Z,102964.19
2023-02-28T18:42:12.768Z,102968.69
2023-02-28T18:44:42.281Z,102968.84
2023-02-28T18:47:11.982Z,102972.47
2023-02-28T18:49:41.155Z,102971.81
2023-02-28T18:52:10.266Z,102957.06
2023-02-28T18:54:39.336Z,102961.53
2023-02-28T18:57:08.469Z,102963.25
2023-02-28T18:59:39.310Z,102965.78
2023-02-28T19:02:10.143Z,102957.34
2023-02-28T19:04:41.793Z,102956.47
2023-02-28T19:07:10.854Z,102969.53
2023-02-28T19:09:39.962Z,102961.94
2023-02-28T19:12:09.429Z,102960.94
2023-02-28T19:14:40.023Z,102968.84
2023-02-28T19:17:09.155Z,102971.53
2023-02-28T19:19:38.356Z,102963.78
2023-02-28T19:22:07.592Z,102959.56
2023-02-28T19:24:36.922Z,102965.66
2023-02-28T19:27:06.149Z,102966.63
2023-02-28T19:29:35.519Z,102968.31
2023-02-28T19:32:06.252Z,102972.75
2023-02-28T19:34:35.742Z,102973.72
2023-02-28T19:37:04.828Z,102966.88
2023-02-28T19:39:41.464Z,102968.59
2023-02-28T19:42:11.532Z,102970.47
2023-02-28T19:44:40.661Z,102980.81
2023-02-28T19:47:12.008Z,102987.84
2023-02-28T19:49:41.280Z,102984.47
2023-02-28T19:52:13.456Z,102983.66
2023-02-28T19:54:44.753Z,102985.38
2023-02-28T19:57:13.867Z,102981.09
2023-02-28T19:59:43.104Z,102977.50
2023-02-28T20:02:16.299Z,102985.25
2023-02-28T20:04:49.253Z,102975.81
2023-02-28T20:07:20.176Z,102986.06
2023-02-28T20:09:49.946Z,102976.53
2023-02-28T20:12:24.784Z,102977.63
2023-02-28T20:14:56.076Z,102978.56
2023-02-28T20:17:26.738Z,102974.34
2023-02-28T20:19:55.970Z,102973.44
2023-02-28T20:22:25.206Z,102975.25
2023-02-28T20:24:54.411Z,102977.78
2023-02-28T20:27:23.514Z,102975.31
2023-02-28T20:29:53.223Z,102969.38
2023-02-28T20:32:22.625Z,102977.81
2023-02-28T20:34:53.488Z,102981.31
2023-02-28T20:37:22.630Z,102978.72
2023-02-28T20:39:53.008Z,102981.38
2023-02-28T20:42:22.077Z,102977.94
2023-02-28T20:44:51.160Z,102972.69
2023-02-28T20:47:20.344Z,102974.47
2023-02-28T20:49:49.411Z,102965.94
2023-02-28T20:52:20.115Z,102976.25
2023-02-28T20:54:49.484Z,102967.72
2023-02-28T20:57:18.544Z,102965.22
2023-02-28T20:59:47.753Z,102967.75
2023-02-28T21:02:18.050Z,102966.06
2023-02-28T21:04:47.336Z,102970.50
2023-02-28T21:07:16.545Z,102975.69
2023-02-28T21:09:47.228Z,102979.16
2023-02-28T21:12:16.605Z,102979.25
2023-02-28T21:14:45.676Z,102969.91
2023-02-28T21:17:15.254Z,102976.81
2023-02-28T21:19:44.304Z,102971.69
2023-02-28T21:22:13.898Z,102975.16
2023-02-28T21:24:43.918Z,102970.06
2023-02-28T21:27:14.341Z,102965.78
2023-02-28T21:29:43.482Z,102964.78
2023-02-28T21:32:14.506Z,102972.63
2023-02-28T21:34:43.621Z,102970.88
2023-02-28T21:37:12.780Z,102972.63
2023-02-28T21:39:41.874Z,102977.78
2023-02-28T21:42:10.974Z,102968.31
2023-02-28T21:44:41.569Z,102978.47
2023-02-28T21:47:11.000Z,102969.03
2023-02-28T21:49:40.205Z,102969.94
2023-02-28T21:52:09.381Z,102977.63
2023-02-28T21:54:38.591Z,102976.84
2023-02-28T21:57:07.691Z,102979.38
2023-02-28T21:59:37.161Z,102974.22
2023-02-28T22:02:10.579Z,102970.75
2023-02-28T22:04:40.743Z,102985.34
2023-02-28T22:07:09.813Z,102981.88
2023-02-28T22:09:39.021Z,102980.09
2023-02-28T22:12:08.538Z,102971.56
2023-02-28T22:14:39.631Z,102968.13
2023-02-28T22:17:10.281Z,102975.91
2023-02-28T22:19:39.555Z,102969.94
2023-02-28T22:22:08.651Z,102971.66
2023-02-28T22:24:37.790Z,102974.31
2023-02-28T22:27:06.877Z,102977.72
2023-02-28T22:29:35.984Z,102977.69
2023-02-28T22:32:05.314Z,102977.78
2023-02-28T22:34:35.749Z,102982.06
2023-02-28T22:37:04.808Z,102978.66
2023-02-28T22:39:33.867Z,102988.09
2023-02-28T22:42:02.902Z,102987.22
2023-02-28T22:44:32.041Z,102985.50
2023-02-28T22:47:01.432Z,102990.69
2023-02-28T22:49:30.795Z,102984.63
2023-02-28T22:52:01.270Z,102988.13
2023-02-28T22:54:30.325Z,102990.75
2023-02-28T22:56:59.410Z,102991.63
2023-02-28T22:59:28.499Z,102997.66
2023-02-28T23:01:57.754Z,102994.19
2023-02-28T23:04:27.012Z,102989.00
2023-02-28T23:06:56.151Z,102988.13
2023-02-28T23:09:26.617Z,102992.44
2023-02-28T23:11:55.718Z,102993.34
2023-02-28T23:14:24.791Z,102996.75
2023-02-28T23:16:55.727Z,102991.56
2023-02-28T23:19:27.722Z,102983.84
2023-02-28T23:21:57.800Z,102992.47
2023-02-28T23:24:30.562Z,102991.56
2023-02-28T23:27:02.220Z,102978.63
2023-02-28T23:29:31.684Z,102972.66
2023-02-28T23:32:01.062Z,102974.38
2023-02-28T23:34:32.006Z,102970.13
2023-02-28T23:37:02.774Z,102966.69
2023-02-28T23:39:33.558Z,102970.09
2023-02-28T23:42:02.648Z,102964.94
2023-02-28T23:44:31.794Z,102966.66
2023-02-28T23:47:00.931Z,102963.31
2023-02-28T23:49:30.061Z,102966.72
2023-02-28T23:51:59.168Z,102968.44
2023-02-28T23:54:28.568Z,102976.22
2023-02-28T23:56:59.285Z,102973.63
2023-02-28T23:59:28.442Z,102971.06
